createdAt,value
2022-12-08T00:01:12.744Z,13.27
2022-12-08T00:03:39.767Z,14.25
2022-12-08T00:06:25.901Z,14.15
2022-12-08T00:11:39.130Z,13.98
2022-12-08T00:14:05.884Z,13.20
2022-12-08T00:16:33.000Z,12.98
2022-12-08T00:18:59.814Z,14.43
2022-12-08T00:21:26.852Z,12.73
2022-12-08T00:23:55.373Z,13.55
2022-12-08T00:26:22.444Z,12.98
2022-12-08T00:28:49.191Z,12.80
2022-12-08T00:31:16.285Z,14.50
2022-12-08T00:33:43.050Z,12.60
2022-12-08T00:36:13.279Z,11.45
2022-12-08T00:38:40.224Z,12.70
2022-12-08T00:41:08.785Z,12.20
2022-12-08T00:43:35.519Z,10.93
2022-12-08T00:46:02.678Z,12.30
2022-12-08T00:48:29.445Z,11.82
2022-12-08T00:50:56.514Z,12.73
2022-12-08T00:53:23.292Z,11.38
2022-12-08T00:55:50.300Z,11.25
2022-12-08T00:58:17.019Z,11.38
2022-12-08T01:00:44.251Z,12.32
2022-12-08T01:03:11.647Z,12.02
2022-12-08T01:05:39.082Z,11.93
2022-12-08T01:08:06.731Z,12.43
2022-12-08T01:10:37.475Z,11.40
2022-12-08T01:13:04.319Z,11.55
2022-12-08T01:15:31.394Z,11.90
2022-12-08T01:17:58.147Z,11.68
2022-12-08T01:20:25.209Z,11.63
2022-12-08T01:22:51.948Z,11.50
2022-12-08T01:25:19.102Z,10.30
2022-12-08T01:27:45.806Z,11.27
2022-12-08T01:30:13.339Z,9.85
2022-12-08T01:32:40.091Z,12.25
2022-12-08T01:35:07.426Z,11.07
2022-12-08T01:37:34.140Z,10.80
2022-12-08T01:40:01.666Z,10.77
2022-12-08T01:42:30.036Z,9.50
2022-12-08T01:45:02.737Z,11.25
2022-12-08T01:47:36.542Z,11.68
2022-12-08T01:50:05.194Z,10.75
2022-12-08T01:53:09.168Z,10.45
2022-12-08T01:55:57.553Z,9.80
2022-12-08T01:58:32.618Z,9.52
2022-12-08T02:03:38.769Z,9.18
2022-12-08T02:06:06.147Z,9.25
2022-12-08T02:08:33.020Z,10.88
2022-12-08T02:11:00.094Z,9.88
2022-12-08T02:13:26.886Z,9.27
2022-12-08T02:16:00.077Z,10.00
2022-12-08T02:18:42.011Z,10.27
2022-12-08T02:21:09.467Z,10.07
2022-12-08T02:23:48.371Z,10.15
2022-12-08T02:26:51.798Z,9.38
2022-12-08T02:29:33.859Z,10.50
2022-12-08T02:32:19.526Z,10.40
2022-12-08T02:35:15.234Z,10.23
2022-12-08T02:37:59.284Z,10.48
2022-12-08T02:40:32.493Z,10.57
2022-12-08T02:43:02.623Z,10.07
2022-12-08T02:45:35.025Z,10.80
2022-12-08T02:48:02.098Z,9.90
2022-12-08T02:50:29.008Z,10.52
2022-12-08T02:52:56.054Z,10.68
2022-12-08T02:56:15.569Z,11.02
2022-12-08T02:59:24.133Z,11.32
2022-12-08T03:02:14.631Z,9.80
2022-12-08T03:04:41.730Z,11.43
2022-12-08T03:07:22.156Z,12.90
2022-12-08T03:09:52.807Z,11.43
2022-12-08T03:12:39.958Z,12.90
2022-12-08T03:15:12.521Z,12.00
2022-12-08T03:17:39.496Z,11.63
2022-12-08T03:20:09.760Z,11.68
2022-12-08T03:22:36.472Z,10.85
2022-12-08T03:25:03.718Z,11.88
2022-12-08T03:27:30.532Z,10.55
2022-12-08T03:29:58.385Z,11.23
2022-12-08T03:32:51.773Z,11.45
2022-12-08T03:35:22.767Z,10.98
2022-12-08T03:37:49.472Z,10.68
2022-12-08T03:40:18.729Z,10.80
2022-12-08T03:42:45.500Z,11.60
2022-12-08T03:45:12.576Z,10.70
2022-12-08T03:47:39.345Z,10.80
2022-12-08T03:50:07.073Z,10.75
2022-12-08T03:52:34.022Z,9.88
2022-12-08T03:55:01.029Z,10.80
2022-12-08T03:57:27.748Z,10.90
2022-12-08T03:59:54.737Z,9.57
2022-12-08T04:02:21.553Z,10.80
2022-12-08T04:04:48.871Z,10.80
2022-12-08T04:07:15.552Z,10.20
2022-12-08T04:09:42.695Z,10.88
2022-12-08T04:12:09.481Z,11.27
2022-12-08T04:14:36.535Z,11.02
2022-12-08T04:17:03.375Z,10.57
2022-12-08T04:19:30.510Z,10.55
2022-12-08T04:21:57.301Z,10.77
2022-12-08T04:24:24.308Z,9.75
2022-12-08T04:26:51.091Z,10.20
2022-12-08T04:29:18.284Z,10.38
2022-12-08T04:31:45.117Z,10.10
2022-12-08T04:34:12.303Z,10.52
2022-12-08T04:36:39.024Z,9.43
2022-12-08T04:39:06.099Z,9.70
2022-12-08T04:41:33.071Z,11.07
2022-12-08T04:44:00.084Z,11.15
2022-12-08T04:46:26.984Z,10.90
2022-12-08T04:48:54.052Z,10.57
2022-12-08T04:51:21.225Z,10.60
2022-12-08T04:53:48.307Z,9.98
2022-12-08T04:56:15.760Z,10.57
2022-12-08T04:58:43.119Z,9.80
2022-12-08T05:01:09.920Z,10.38
2022-12-08T05:03:37.035Z,9.63
2022-12-08T05:06:03.978Z,10.75
2022-12-08T05:08:31.339Z,12.13
2022-12-08T05:11:05.240Z,10.48
2022-12-08T05:13:32.404Z,11.00
2022-12-08T05:16:04.224Z,11.02
2022-12-08T05:18:31.428Z,10.20
2022-12-08T05:20:58.156Z,11.38
2022-12-08T05:23:25.310Z,9.98
2022-12-08T05:25:52.050Z,10.65
2022-12-08T05:28:40.791Z,11.13
2022-12-08T05:31:05.986Z,11.88
2022-12-08T05:33:33.058Z,10.82
2022-12-08T05:35:59.767Z,11.43
2022-12-08T05:38:26.826Z,11.43
2022-12-08T05:40:53.522Z,12.13
2022-12-08T05:43:20.781Z,11.57
2022-12-08T05:45:47.586Z,12.20
2022-12-08T05:48:14.658Z,11.18
2022-12-08T05:50:48.522Z,12.05
2022-12-08T05:53:16.578Z,12.32
2022-12-08T05:55:43.431Z,12.27
2022-12-08T05:58:12.790Z,11.85
2022-12-08T06:00:39.858Z,12.07
2022-12-08T06:03:06.956Z,12.60
2022-12-08T06:05:34.654Z,12.80
2022-12-08T06:08:02.006Z,11.70
2022-12-08T06:10:28.954Z,13.20
2022-12-08T06:12:55.988Z,12.13
2022-12-08T06:15:22.743Z,11.98
2022-12-08T06:17:49.752Z,12.80
2022-12-08T06:20:16.542Z,12.55
2022-12-08T06:22:43.603Z,11.95
2022-12-08T06:25:10.510Z,12.63
2022-12-08T06:27:37.598Z,13.05
2022-12-08T06:30:04.832Z,13.75
2022-12-08T06:32:32.040Z,13.10
2022-12-08T06:34:58.822Z,12.95
2022-12-08T06:37:25.814Z,12.48
2022-12-08T06:39:52.588Z,13.13
2022-12-08T06:42:38.250Z,13.23
2022-12-08T06:45:05.490Z,12.60
2022-12-08T06:47:32.505Z,14.63
2022-12-08T06:49:59.240Z,14.40
2022-12-08T06:52:26.285Z,13.27
2022-12-08T06:54:53.002Z,12.88
2022-12-08T06:57:20.045Z,12.80
2022-12-08T06:59:46.814Z,12.98
2022-12-08T07:02:13.924Z,14.35
2022-12-08T07:04:40.724Z,14.70
2022-12-08T07:07:07.776Z,16.05
2022-12-08T07:09:34.665Z,14.70
2022-12-08T07:12:01.692Z,14.63
2022-12-08T07:14:28.592Z,15.52
2022-12-08T07:16:55.693Z,14.38
2022-12-08T07:19:22.536Z,14.85
2022-12-08T07:21:49.514Z,15.10
2022-12-08T07:24:16.262Z,14.30
2022-12-08T07:26:43.338Z,15.32
2022-12-08T07:29:10.814Z,15.25
2022-12-08T07:31:37.853Z,14.82
2022-12-08T07:34:04.597Z,14.57
2022-12-08T07:36:32.799Z,15.07
2022-12-08T07:38:59.552Z,13.57
2022-12-08T07:41:26.654Z,14.63
2022-12-08T07:43:53.908Z,16.35
2022-12-08T07:46:22.041Z,15.07
2022-12-08T07:48:48.892Z,15.65
2022-12-08T07:51:16.084Z,16.40
2022-12-08T07:53:47.213Z,14.02
2022-12-08T07:56:17.154Z,14.27
2022-12-08T07:58:45.926Z,15.52
2022-12-08T08:01:23.436Z,16.05
2022-12-08T08:03:50.409Z,14.57
2022-12-08T08:06:17.445Z,16.67
2022-12-08T08:08:44.197Z,15.48
2022-12-08T08:11:18.913Z,16.40
2022-12-08T08:13:47.905Z,15.43
2022-12-08T08:16:15.072Z,17.13
2022-12-08T08:18:41.948Z,16.63
2022-12-08T08:21:43.074Z,16.98
2022-12-08T08:23:57.863Z,17.90
2022-12-08T08:26:24.902Z,17.17
2022-12-08T08:28:51.660Z,17.63
2022-12-08T08:31:18.723Z,17.33
2022-12-08T08:33:45.639Z,17.00
2022-12-08T08:36:12.851Z,17.23
2022-12-08T08:38:40.122Z,16.60
2022-12-08T08:41:09.133Z,17.38
2022-12-08T08:43:38.549Z,17.20
2022-12-08T08:46:06.494Z,16.05
2022-12-08T08:48:33.460Z,17.35
2022-12-08T08:51:07.257Z,15.93
2022-12-08T08:53:34.006Z,18.63
2022-12-08T08:56:02.907Z,17.50
2022-12-08T08:58:29.855Z,17.08
2022-12-08T09:00:56.852Z,18.25
2022-12-08T09:03:23.601Z,16.90
2022-12-08T09:05:50.792Z,16.50
2022-12-08T09:08:17.730Z,17.50
2022-12-08T09:10:44.905Z,16.15
2022-12-08T09:13:11.679Z,16.83
2022-12-08T09:15:38.848Z,15.25
2022-12-08T09:18:06.836Z,17.80
2022-12-08T09:20:34.777Z,15.98
2022-12-08T09:23:01.691Z,15.25
2022-12-08T09:25:28.962Z,15.75
2022-12-08T09:27:55.771Z,17.30
2022-12-08T09:30:22.954Z,15.30
2022-12-08T09:32:49.781Z,16.75
2022-12-08T09:35:16.819Z,17.88
2022-12-08T09:37:43.559Z,16.55
2022-12-08T09:40:11.976Z,17.48
2022-12-08T09:42:44.820Z,18.40
2022-12-08T09:45:12.616Z,16.20
2022-12-08T09:48:03.284Z,18.27
2022-12-08T09:50:45.719Z,16.90
2022-12-08T09:53:14.106Z,16.92
2022-12-08T09:55:49.894Z,16.45
2022-12-08T09:58:47.575Z,16.65
2022-12-08T10:01:14.733Z,16.30
2022-12-08T10:03:41.483Z,17.10
2022-12-08T10:06:40.811Z,16.05
2022-12-08T10:09:25.279Z,16.13
2022-12-08T10:12:04.586Z,16.13
2022-12-08T10:14:41.286Z,14.90
2022-12-08T10:17:18.210Z,14.27
2022-12-08T10:19:45.645Z,15.13
2022-12-08T10:22:22.211Z,15.30
2022-12-08T10:25:04.542Z,15.13
2022-12-08T10:27:32.758Z,15.05
2022-12-08T10:29:59.488Z,15.35
2022-12-08T10:32:29.466Z,14.90
2022-12-08T10:35:07.104Z,15.55
2022-12-08T10:37:34.439Z,13.80
2022-12-08T10:40:16.340Z,13.95
2022-12-08T10:42:47.610Z,15.15
2022-12-08T10:45:23.205Z,14.93
2022-12-08T10:47:56.706Z,13.65
2022-12-08T10:50:31.402Z,13.95
2022-12-08T10:53:48.013Z,14.63
2022-12-08T10:56:15.574Z,14.00
2022-12-08T10:58:46.413Z,13.35
2022-12-08T11:01:13.866Z,13.93
2022-12-08T11:03:45.302Z,13.13
2022-12-08T11:06:15.310Z,13.32
2022-12-08T11:08:50.863Z,13.05
2022-12-08T11:13:44.721Z,12.40
2022-12-08T11:16:13.422Z,13.65
2022-12-08T11:18:42.292Z,12.77
2022-12-08T11:21:13.594Z,13.60
2022-12-08T11:23:41.429Z,12.75
2022-12-08T11:26:30.006Z,13.70
2022-12-08T11:28:57.182Z,13.57
2022-12-08T11:31:26.942Z,14.48
2022-12-08T11:33:54.171Z,14.10
2022-12-08T11:36:21.709Z,14.60
2022-12-08T11:38:49.317Z,14.05
2022-12-08T11:41:21.226Z,14.07
2022-12-08T11:43:56.038Z,14.35
2022-12-08T11:46:32.419Z,14.30
2022-12-08T11:49:06.237Z,13.38
2022-12-08T11:51:56.880Z,12.75
2022-12-08T11:54:30.208Z,13.43
2022-12-08T11:56:58.520Z,14.02
2022-12-08T11:59:39.584Z,13.88
2022-12-08T12:02:06.476Z,13.70
2022-12-08T12:04:37.460Z,12.60
2022-12-08T12:07:13.252Z,13.15
2022-12-08T12:10:34.048Z,11.95
2022-12-08T12:13:31.661Z,13.30
2022-12-08T12:16:01.496Z,12.82
2022-12-08T12:18:46.433Z,12.45
2022-12-08T12:21:26.013Z,11.85
2022-12-08T12:24:28.418Z,12.43
2022-12-08T12:27:08.069Z,12.93
2022-12-08T12:29:36.088Z,12.75
2022-12-08T12:32:07.941Z,12.82
2022-12-08T12:34:39.125Z,12.15
2022-12-08T12:37:14.729Z,11.23
2022-12-08T12:42:46.037Z,12.10
2022-12-08T12:45:25.563Z,11.93
2022-12-08T12:47:56.933Z,12.32
2022-12-08T12:50:38.845Z,12.40
2022-12-08T12:53:12.308Z,12.75
2022-12-08T12:55:46.557Z,12.50
2022-12-08T12:58:32.518Z,12.88
2022-12-08T13:01:12.721Z,11.98
2022-12-08T13:03:45.639Z,12.70
2022-12-08T13:06:14.878Z,12.65
2022-12-08T13:08:50.235Z,11.65
2022-12-08T13:11:16.951Z,10.82
2022-12-08T13:13:56.912Z,11.82
2022-12-08T13:16:27.397Z,12.07
2022-12-08T13:19:03.925Z,12.52
2022-12-08T13:21:36.059Z,12.18
2022-12-08T13:24:30.701Z,11.05
2022-12-08T13:27:03.524Z,11.52
2022-12-08T13:29:34.343Z,11.93
2022-12-08T13:32:07.131Z,11.30
2022-12-08T13:34:50.019Z,10.70
2022-12-08T13:37:31.246Z,10.55
2022-12-08T13:40:01.576Z,11.10
2022-12-08T13:42:36.318Z,11.20
2022-12-08T13:49:03.372Z,11.32
2022-12-08T13:57:11.446Z,10.32
2022-12-08T13:59:43.279Z,10.32
2022-12-08T14:02:19.008Z,11.45
2022-12-08T14:05:16.821Z,11.40
2022-12-08T14:07:34.394Z,11.68
2022-12-08T14:10:03.672Z,12.05
2022-12-08T14:12:30.750Z,11.55
2022-12-08T14:15:04.369Z,10.85
2022-12-08T14:17:32.522Z,10.63
2022-12-08T14:20:02.272Z,12.38
2022-12-08T14:22:36.496Z,14.10
2022-12-08T14:25:04.292Z,13.40
2022-12-08T14:27:35.942Z,14.90
2022-12-08T14:30:16.251Z,16.23
2022-12-08T14:32:45.163Z,16.50
2022-12-08T14:35:19.682Z,17.20
2022-12-08T14:37:51.652Z,14.88
2022-12-08T14:40:22.799Z,16.67
2022-12-08T14:42:53.078Z,17.10
2022-12-08T14:45:20.030Z,19.13
2022-12-08T14:47:48.561Z,18.83
2022-12-08T14:50:38.746Z,21.27
2022-12-08T14:53:14.448Z,22.15
2022-12-08T14:58:22.162Z,26.13
2022-12-08T15:00:49.354Z,30.42
2022-12-08T15:03:19.329Z,31.60
2022-12-08T15:05:46.051Z,34.75
2022-12-08T15:08:13.155Z,35.65
2022-12-08T15:10:40.038Z,37.13
2022-12-08T15:13:09.966Z,41.65
2022-12-08T15:15:52.836Z,40.90
2022-12-08T15:18:19.972Z,41.63
2022-12-08T15:20:53.860Z,42.40
2022-12-08T15:23:32.504Z,42.55
2022-12-08T15:25:59.264Z,41.72
2022-12-08T15:28:30.004Z,41.42
2022-12-08T15:30:57.739Z,38.58
2022-12-08T15:33:25.022Z,37.78
2022-12-08T15:35:51.817Z,37.95
2022-12-08T15:38:24.938Z,36.63
2022-12-08T15:40:52.666Z,37.30
2022-12-08T15:43:20.074Z,37.47
2022-12-08T15:45:57.846Z,36.25
2022-12-08T15:48:28.077Z,35.53
2022-12-08T15:50:54.981Z,35.08
2022-12-08T15:53:22.216Z,37.17
2022-12-08T15:56:18.442Z,33.17
2022-12-08T16:01:23.113Z,35.22
2022-12-08T16:09:36.396Z,38.00
2022-12-08T16:12:21.873Z,39.42
2022-12-08T16:17:36.242Z,40.05
2022-12-08T16:20:05.137Z,41.00
2022-12-08T16:25:21.336Z,40.45
2022-12-08T16:28:23.305Z,42.55
2022-12-08T16:30:42.551Z,43.85
2022-12-08T16:33:10.480Z,42.67
2022-12-08T16:35:37.580Z,41.83
2022-12-08T16:38:04.637Z,46.42
2022-12-08T16:40:31.769Z,44.28
2022-12-08T16:42:58.548Z,47.53
2022-12-08T16:45:27.977Z,45.65
2022-12-08T16:47:59.061Z,45.28
2022-12-08T16:50:27.067Z,47.13
2022-12-08T16:53:12.470Z,45.38
2022-12-08T16:58:06.265Z,44.40
2022-12-08T17:00:37.121Z,44.85
2022-12-08T17:03:10.761Z,42.85
2022-12-08T17:05:39.750Z,42.15
2022-12-08T17:08:06.631Z,44.17
2022-12-08T17:10:38.520Z,42.28
2022-12-08T17:13:05.271Z,43.15
2022-12-08T17:15:32.347Z,41.85
2022-12-08T17:17:59.132Z,43.60
2022-12-08T17:20:27.824Z,41.33
2022-12-08T17:22:58.199Z,40.53
2022-12-08T17:25:28.307Z,42.25
2022-12-08T17:27:56.335Z,42.17
2022-12-08T17:30:23.533Z,41.50
2022-12-08T17:32:50.315Z,39.88
2022-12-08T17:35:17.448Z,40.08
2022-12-08T17:37:44.212Z,41.40
2022-12-08T17:40:11.582Z,41.10
2022-12-08T17:42:38.778Z,43.53
2022-12-08T17:45:07.290Z,42.40
2022-12-08T17:47:34.354Z,40.53
2022-12-08T17:50:01.820Z,41.30
2022-12-08T17:52:28.595Z,42.50
2022-12-08T17:54:55.784Z,41.97
2022-12-08T17:57:22.559Z,41.50
2022-12-08T17:59:49.678Z,44.83
2022-12-08T18:02:16.515Z,43.92
2022-12-08T18:04:43.633Z,45.78
2022-12-08T18:07:10.426Z,45.15
2022-12-08T18:09:37.608Z,47.70
2022-12-08T18:12:04.622Z,48.13
2022-12-08T18:14:31.847Z,47.97
2022-12-08T18:16:58.748Z,44.20
2022-12-08T18:19:26.345Z,43.78
2022-12-08T18:21:53.091Z,46.67
2022-12-08T18:24:22.226Z,44.50
2022-12-08T18:26:49.408Z,43.65
2022-12-08T18:29:16.476Z,43.88
2022-12-08T18:31:43.248Z,44.28
2022-12-08T18:34:10.270Z,44.03
2022-12-08T18:36:37.042Z,44.35
2022-12-08T18:39:08.905Z,44.70
2022-12-08T18:41:37.657Z,45.25
2022-12-08T18:44:04.748Z,44.20
2022-12-08T18:46:31.608Z,44.55
2022-12-08T18:48:59.492Z,44.50
2022-12-08T18:51:26.362Z,43.83
2022-12-08T18:53:53.411Z,44.67
2022-12-08T18:56:30.683Z,43.45
2022-12-08T18:59:03.283Z,45.22
2022-12-08T19:01:32.106Z,45.50
2022-12-08T19:04:27.400Z,44.50
2022-12-08T19:06:51.678Z,44.22
2022-12-08T19:09:18.801Z,45.78
2022-12-08T19:11:45.588Z,48.03
2022-12-08T19:14:12.704Z,45.95
2022-12-08T19:16:39.439Z,44.03
2022-12-08T19:19:06.627Z,46.45
2022-12-08T19:21:33.447Z,44.92
2022-12-08T19:24:00.536Z,43.55
2022-12-08T19:26:27.957Z,45.35
2022-12-08T19:28:55.032Z,47.92
2022-12-08T19:31:21.926Z,47.13
2022-12-08T19:33:49.115Z,46.33
2022-12-08T19:36:17.967Z,47.35
2022-12-08T19:39:03.953Z,48.22
2022-12-08T19:41:49.336Z,48.00
2022-12-08T19:44:36.153Z,48.70
2022-12-08T19:47:03.680Z,50.30
2022-12-08T19:49:30.906Z,48.70
2022-12-08T19:51:57.899Z,47.05
2022-12-08T19:54:24.906Z,46.78
2022-12-08T19:56:51.662Z,46.30
2022-12-08T19:59:19.282Z,45.58
2022-12-08T20:01:48.105Z,48.13
2022-12-08T20:04:15.505Z,45.33
2022-12-08T20:06:42.773Z,46.35
2022-12-08T20:09:10.527Z,50.05
2022-12-08T20:11:37.910Z,46.10
2022-12-08T20:14:05.167Z,46.55
2022-12-08T20:16:32.150Z,45.63
2022-12-08T20:18:59.614Z,48.70
2022-12-08T20:21:26.478Z,46.08
2022-12-08T20:23:53.696Z,46.50
2022-12-08T20:26:21.420Z,46.80
2022-12-08T20:28:48.750Z,46.60
2022-12-08T20:31:19.849Z,45.30
2022-12-08T20:33:47.092Z,46.45
2022-12-08T20:36:17.526Z,45.22
2022-12-08T20:38:45.776Z,46.88
2022-12-08T20:41:12.759Z,46.38
2022-12-08T20:43:39.801Z,45.10
2022-12-08T20:46:07.517Z,46.20
2022-12-08T20:48:34.838Z,45.38
2022-12-08T20:51:01.803Z,43.88
2022-12-08T20:53:29.005Z,45.00
2022-12-08T20:55:55.927Z,43.60
2022-12-08T20:58:23.216Z,44.13
2022-12-08T21:00:50.203Z,44.95
2022-12-08T21:03:18.679Z,43.80
2022-12-08T21:05:52.481Z,42.60
2022-12-08T21:08:19.919Z,43.53
2022-12-08T21:10:53.463Z,43.72
2022-12-08T21:13:20.912Z,44.40
2022-12-08T21:15:47.908Z,40.90
2022-12-08T21:18:16.229Z,42.13
2022-12-08T21:20:43.432Z,40.50
2022-12-08T21:23:10.759Z,43.08
2022-12-08T21:25:41.930Z,43.10
2022-12-08T21:28:09.294Z,42.40
2022-12-08T21:30:36.054Z,43.10
2022-12-08T21:33:03.337Z,40.78
2022-12-08T21:35:30.318Z,43.20
2022-12-08T21:37:57.557Z,43.70
2022-12-08T21:40:24.468Z,42.05
2022-12-08T21:42:51.520Z,44.30
2022-12-08T21:45:19.435Z,42.80
2022-12-08T21:47:47.264Z,43.70
2022-12-08T21:50:14.329Z,43.20
2022-12-08T21:52:42.811Z,46.85
2022-12-08T21:55:10.504Z,46.70
2022-12-08T21:57:37.715Z,44.88
2022-12-08T22:00:06.773Z,46.42
2022-12-08T22:02:34.193Z,48.13
2022-12-08T22:05:01.234Z,46.92
2022-12-08T22:07:28.410Z,51.47
2022-12-08T22:09:55.412Z,49.63
2022-12-08T22:12:22.974Z,47.70
2022-12-08T22:14:51.034Z,49.65
2022-12-08T22:17:18.714Z,49.05
2022-12-08T22:19:46.044Z,48.95
2022-12-08T22:22:13.264Z,50.92
2022-12-08T22:24:40.141Z,49.55
2022-12-08T22:27:07.542Z,50.55
2022-12-08T22:29:34.373Z,51.88
2022-12-08T22:32:01.626Z,49.67
2022-12-08T22:34:28.451Z,51.40
2022-12-08T22:36:55.486Z,50.53
2022-12-08T22:39:22.385Z,53.53
2022-12-08T22:41:49.431Z,54.33
2022-12-08T22:44:16.488Z,54.10
2022-12-08T22:46:43.653Z,54.70
2022-12-08T22:49:10.582Z,55.78
2022-12-08T22:51:37.835Z,56.45
2022-12-08T22:54:05.600Z,52.30
2022-12-08T22:56:32.711Z,54.53
2022-12-08T22:58:59.542Z,54.88
2022-12-08T23:01:31.207Z,53.95
2022-12-08T23:03:58.707Z,54.38
2022-12-08T23:06:26.431Z,54.08
2022-12-08T23:08:53.565Z,54.65
2022-12-08T23:11:21.003Z,51.97
2022-12-08T23:13:48.222Z,50.55
2022-12-08T23:16:15.630Z,50.97
2022-12-08T23:19:20.497Z,50.47
2022-12-08T23:21:47.612Z,49.33
2022-12-08T23:24:14.574Z,47.22
2022-12-08T23:26:43.325Z,46.58
2022-12-08T23:31:54.819Z,42.72
2022-12-08T23:34:21.868Z,42.97
2022-12-08T23:36:49.081Z,42.58
2022-12-08T23:39:16.048Z,39.90
2022-12-08T23:41:43.214Z,40.85
2022-12-08T23:44:12.351Z,39.60
2022-12-08T23:46:39.817Z,40.03
2022-12-08T23:49:06.733Z,37.67
2022-12-08T23:51:33.855Z,34.80
2022-12-08T23:54:00.798Z,36.67
2022-12-08T23:56:30.504Z,36.50
2022-12-08T23:58:57.676Z,35.17
